createdAt,value
2023-01-20T03:09:31.079Z,82505.91
2023-01-20T03:14:34.822Z,83279.88
2023-01-20T03:19:38.442Z,83279.88
2023-01-20T03:24:45.160Z,82505.91
2023-01-20T03:29:48.743Z,82505.91
2023-01-20T03:34:52.357Z,82505.91
2023-01-20T03:39:58.083Z,82505.91
2023-01-20T03:45:07.637Z,81732.09
2023-01-20T03:50:22.892Z,81216.31
2023-01-20T03:55:34.322Z,81474.19
2023-01-20T04:00:43.147Z,81216.31
2023-01-20T04:05:49.061Z,80958.44
2023-01-20T04:16:42.265Z,80442.75
2023-01-20T04:21:50.107Z,80700.59
2023-01-20T04:26:53.643Z,80700.59
2023-01-20T04:32:02.077Z,80700.59
2023-01-20T04:37:05.830Z,80700.59
2023-01-20T04:42:11.031Z,80442.75
2023-01-20T04:47:15.988Z,79669.34
2023-01-20T04:52:19.522Z,79411.56
2023-01-20T04:57:23.154Z,78638.34
2023-01-20T05:02:28.187Z,78638.34
2023-01-20T05:07:31.826Z,78896.06
2023-01-20T05:12:36.565Z,78638.34
2023-01-20T05:17:41.504Z,78380.63
2023-01-20T05:22:45.244Z,77865.28
2023-01-20T05:27:48.837Z,77865.28
2023-01-20T05:32:53.770Z,77349.97
2023-01-20T05:37:57.666Z,76834.75
2023-01-20T05:43:01.428Z,76834.75
2023-01-20T05:48:06.952Z,76834.75
2023-01-20T05:53:10.551Z,76834.75
2023-01-20T05:58:14.464Z,76834.75
2023-01-20T06:03:19.399Z,76577.16
2023-01-20T06:08:22.963Z,76577.16
2023-01-20T06:13:26.672Z,76319.59
2023-01-20T06:18:31.740Z,76319.59
2023-01-20T06:23:35.423Z,76577.16
2023-01-20T06:28:39.307Z,76319.59
2023-01-20T06:33:44.608Z,76319.59
2023-01-20T06:38:50.714Z,76577.16
2023-01-20T06:43:54.464Z,76834.75
2023-01-20T06:49:00.780Z,76577.16
2023-01-20T06:54:04.608Z,77092.34
2023-01-20T06:59:08.272Z,77349.97
2023-01-20T07:04:14.800Z,77349.97
2023-01-20T07:09:18.373Z,77607.63
2023-01-20T07:14:22.586Z,75546.97
2023-01-20T07:19:27.657Z,76319.59
2023-01-20T07:24:31.211Z,75546.97
2023-01-20T07:29:34.761Z,76577.16
2023-01-20T07:34:39.688Z,77865.28
2023-01-20T07:39:43.324Z,79153.81
2023-01-20T07:44:46.955Z,79669.34
2023-01-20T07:49:51.873Z,79927.13
2023-01-20T07:54:55.440Z,80184.91
2023-01-20T07:59:58.986Z,80442.75
2023-01-20T08:05:03.987Z,81216.31
2023-01-20T08:10:08.726Z,82247.97
2023-01-20T08:15:13.165Z,82247.97
2023-01-20T08:20:19.720Z,82763.88
2023-01-20T08:25:23.521Z,83537.88
